Country
Station

 

Weather  for  Auckland Airport  -  New Zealand    New Zealand

  
14 °C (57 °F)
    
 
 

Current METAR for Auckland Airport is :

NZAA 191530Z AUTO 18007KT 9999 FEW018/// SCT029/// 14/12 Q1011 NOSIG

 

This is a report for Auckland Airport - New Zealand.
 
The report was made 10 minutes ago, at 15:30 UTC .
The wind was blowing at a speed of 3.6 meters per second (8.1 miles per hour) from south (180°).
 
The temperature was 14 °C (57 °F), with a dew-point at 12 °C (54 °F).
The atmospheric pressure was 1011 hPa (29.85 inHg).
The relative humidity was 87.7%.
 
The overall visibility was greater than 10 kilometers (6.2 miles).
 

 
 
 
 

Country :   A   B   C   D   E   F   G   H   I   J   K   L   M   N   O   P   Q   R   S   T   U   V   W   Y   Z

 

Site Info  |  Disclaimer  |  Credits  |  Privacy
Contact us  |  Add to favorites
© 2013-2018 METARs - All rights reserved